Time;durP1;ratioP1;P1;durP2;ratioP2;P2;SDS_P1;SDS_P2;PMS_P1;PMS_P2;Temp;Humidity;BMP_temperature;BMP_pressure;BME280_temperature;BME280_humidity;BME280_pressure;Samples;Min_cycle;Max_cycle;Signal;HPM_P1;HPM_P2
2023/06/16 09:13:04;;;;;;;12.43;9.63;;;;;;;16.15;82.70;101269.56;5130152;27;20161;-64
2023/06/16 09:15:33;;;;;;;13.27;8.52;;;;;;;16.48;81.17;101265.78;5109623;28;20104;-64
2023/06/16 09:18:08;;;;;;;8.40;7.03;;;;;;;16.70;81.00;101263.44;5122817;27;20082;-64
2023/06/16 09:20:39;;;;;;;14.32;7.13;;;;;;;16.89;79.18;101270.34;5130233;27;20375;-64
2023/06/16 09:23:05;;;;;;;9.90;6.88;;;;;;;17.12;77.59;101260.84;5118175;27;20051;-64
2023/06/16 09:25:33;;;;;;;12.38;6.88;;;;;;;17.27;77.52;101258.97;5099554;27;20055;-64
2023/06/16 09:28:08;;;;;;;9.88;6.47;;;;;;;16.94;76.42;101257.53;5086388;27;20052;-64
2023/06/16 09:30:36;;;;;;;8.75;6.45;;;;;;;16.85;76.84;101263.47;5087084;28;20517;-64
2023/06/16 09:33:03;;;;;;;9.07;5.47;;;;;;;16.58;77.89;101260.72;5078960;28;20040;-64
2023/06/16 09:35:30;;;;;;;15.63;5.72;;;;;;;16.46;78.47;101263.19;5090163;28;20052;-66
2023/06/16 09:38:00;;;;;;;6.55;5.00;;;;;;;16.40;77.98;101262.72;5088151;28;20086;-64
2023/06/16 09:40:31;;;;;;;8.48;5.78;;;;;;;16.33;78.83;101276.44;5074248;28;20048;-69
2023/06/16 09:43:00;;;;;;;12.40;6.53;;;;;;;16.38;77.54;101269.94;5074048;28;20040;-63
2023/06/16 09:45:30;;;;;;;18.05;5.88;;;;;;;16.64;77.84;101271.88;5079226;28;20070;-66
2023/06/16 09:47:57;;;;;;;9.93;5.07;;;;;;;16.85;76.28;101263.47;5083638;28;20057;-66
2023/06/16 09:50:26;;;;;;;6.30;4.97;;;;;;;16.89;76.44;101270.34;5059764;28;20057;-69
2023/06/16 09:52:55;;;;;;;12.73;5.45;;;;;;;17.04;75.10;101269.34;5075297;28;20207;-66
2023/06/16 09:55:27;;;;;;;10.32;5.07;;;;;;;16.96;74.92;101273.47;5084255;28;20091;-66
2023/06/16 09:57:55;;;;;;;11.32;6.28;;;;;;;16.87;75.50;101275.78;5077162;28;20060;-64
2023/06/16 10:00:22;;;;;;;8.90;5.80;;;;;;;16.84;76.06;101277.75;5048532;28;20140;-66
2023/06/16 10:02:50;;;;;;;8.98;6.35;;;;;;;16.62;76.51;101284.41;5067839;28;20079;-68
2023/06/16 10:05:19;;;;;;;7.60;5.90;;;;;;;16.47;77.21;101275.56;5084378;28;20375;-65
2023/06/16 10:07:51;;;;;;;8.88;6.55;;;;;;;16.33;78.25;101279.09;5074000;28;20174;-67
2023/06/16 10:10:22;;;;;;;8.68;5.95;;;;;;;16.19;78.94;101276.41;5068142;28;20108;-68
2023/06/16 10:12:51;;;;;;;12.40;6.90;;;;;;;16.01;79.74;101277.53;5078177;28;20061;-67
2023/06/16 10:15:26;;;;;;;8.45;5.90;;;;;;;15.90;80.57;101292.34;5087866;28;20052;-66
2023/06/16 10:18:05;;;;;;;13.32;6.60;;;;;;;15.84;81.70;101283.84;5080931;28;20129;-67
2023/06/16 10:20:37;;;;;;;12.18;6.85;;;;;;;15.87;81.15;101289.91;5090977;28;20084;-65
2023/06/16 10:23:04;;;;;;;12.10;6.45;;;;;;;15.86;81.30;101284.66;5081674;28;20416;-65
2023/06/16 10:25:33;;;;;;;12.23;7.35;;;;;;;15.90;81.17;101281.69;5067648;28;20135;-67
2023/06/16 10:28:05;;;;;;;10.13;6.03;;;;;;;15.88;80.69;101283.59;5053946;28;20079;-66
2023/06/16 10:30:32;;;;;;;9.32;6.47;;;;;;;15.94;80.75;101277.06;5053688;28;20051;-66
2023/06/16 10:33:00;;;;;;;13.18;6.82;;;;;;;16.03;80.09;101275.63;5044683;28;20465;-66
2023/06/16 10:35:26;;;;;;;12.27;7.93;;;;;;;16.27;78.77;101274.13;5059360;28;20182;-67
2023/06/16 10:37:54;;;;;;;10.48;6.60;;;;;;;16.65;78.07;101273.56;5059956;28;20124;-66
2023/06/16 10:40:23;;;;;;;11.52;6.05;;;;;;;16.88;76.41;101263.28;5064298;28;20044;-67
2023/06/16 10:42:56;;;;;;;12.63;6.93;;;;;;;16.86;77.10;101271.38;5060687;28;20052;-67
2023/06/16 10:45:29;;;;;;;11.00;6.55;;;;;;;16.79;75.97;101269.19;5064670;28;20191;-66
2023/06/16 10:48:05;;;;;;;13.52;6.30;;;;;;;16.94;76.04;101262.88;5044257;28;20564;-66
2023/06/16 10:50:59;;;;;;;8.82;6.57;;;;;;;17.16;75.80;101272.16;5069393;28;20060;-64
2023/06/16 10:53:26;;;;;;;10.10;6.80;;;;;;;17.27;74.78;101264.31;5056816;28;20448;-68
2023/06/16 10:56:05;;;;;;;11.07;6.50;;;;;;;17.25;75.08;101266.22;5059502;28;20052;-67
2023/06/16 10:58:32;;;;;;;8.02;5.68;;;;;;;17.38;74.72;101267.13;5066855;28;20102;-65
2023/06/16 11:01:02;;;;;;;18.42;5.68;;;;;;;17.72;73.38;101269.34;5063672;28;20497;-63
2023/06/16 11:03:35;;;;;;;10.10;5.38;;;;;;;17.84;69.92;101257.00;5063805;28;20048;-69
2023/06/16 11:06:03;;;;;;;10.88;5.53;;;;;;;18.06;68.38;101265.25;5052032;28;20053;-68
2023/06/16 11:08:29;;;;;;;8.25;4.57;;;;;;;18.11;66.67;101265.81;5088127;28;20048;-70
2023/06/16 11:11:02;;;;;;;7.32;4.70;;;;;;;18.32;64.60;101268.81;5065951;28;20060;-68
2023/06/16 11:13:38;;;;;;;9.18;4.78;;;;;;;18.47;65.02;101264.19;5061175;28;20124;-64
2023/06/16 11:16:06;;;;;;;4.93;4.15;;;;;;;18.27;66.41;101265.59;5033986;28;20144;-63
2023/06/16 11:18:33;;;;;;;9.60;4.60;;;;;;;18.36;66.15;101264.09;5044975;28;20110;-64
2023/06/16 11:21:06;;;;;;;8.20;4.35;;;;;;;18.27;66.37;101260.22;5051851;28;20073;-62
2023/06/16 11:23:36;;;;;;;9.43;4.47;;;;;;;18.53;66.25;101266.41;5046329;28;20048;-66
2023/06/16 11:26:04;;;;;;;8.02;4.88;;;;;;;18.60;65.61;101266.00;5034812;28;20095;-63
2023/06/16 11:28:31;;;;;;;8.82;5.15;;;;;;;18.53;65.36;101269.09;5042041;28;20084;-65
2023/06/16 11:31:00;;;;;;;8.48;5.80;;;;;;;18.44;65.89;101267.09;5036941;28;20045;-65
2023/06/16 11:33:27;;;;;;;10.07;5.43;;;;;;;18.62;66.28;101270.28;5033610;28;20132;-64
2023/06/16 11:35:54;;;;;;;11.60;5.07;;;;;;;18.50;66.01;101261.31;5031343;28;20132;-64
2023/06/16 11:38:27;;;;;;;9.25;5.13;;;;;;;18.71;64.82;101268.75;5041404;28;20350;-64
2023/06/16 11:40:54;;;;;;;6.60;4.80;;;;;;;18.85;64.68;101276.69;5050425;28;20586;-64
2023/06/16 11:43:36;;;;;;;5.68;4.93;;;;;;;18.70;65.52;101278.63;5053919;28;20077;-63
2023/06/16 11:46:03;;;;;;;8.10;5.07;;;;;;;19.06;65.55;101276.97;5054173;28;20110;-64
2023/06/16 11:48:30;;;;;;;8.82;5.43;;;;;;;19.18;63.61;101272.50;5035836;28;20073;-64
2023/06/16 11:50:56;;;;;;;7.75;5.28;;;;;;;19.16;64.85;101274.47;5032064;28;20049;-63
2023/06/16 11:53:23;;;;;;;12.35;4.45;;;;;;;18.71;64.33;101274.13;5033032;28;20157;-63
2023/06/16 11:55:50;;;;;;;8.15;5.20;;;;;;;18.77;63.94;101270.16;5032483;28;20084;-63
2023/06/16 11:58:18;;;;;;;7.82;4.90;;;;;;;18.99;63.46;101266.78;5039742;28;20139;-63
2023/06/16 12:00:46;;;;;;;6.60;4.88;;;;;;;19.09;63.10;101273.19;5052728;28;20122;-63
2023/06/16 12:03:13;;;;;;;8.07;4.10;;;;;;;19.06;62.14;101270.72;5052974;28;20128;-63
2023/06/16 12:05:41;;;;;;;9.85;4.82;;;;;;;19.20;61.50;101270.56;5036672;28;20046;-63
2023/06/16 12:08:08;;;;;;;7.18;4.53;;;;;;;19.37;61.38;101268.44;5033124;28;20755;-63
2023/06/16 12:10:34;;;;;;;7.30;4.20;;;;;;;19.54;61.08;101264.53;5032940;28;20067;-63
2023/06/16 12:13:01;;;;;;;5.90;4.15;;;;;;;19.90;58.87;101255.53;5027747;28;20048;-63
2023/06/16 12:15:27;;;;;;;7.38;4.72;;;;;;;20.82;58.23;101266.19;5013069;28;20050;-63
2023/06/16 12:17:55;;;;;;;13.38;4.68;;;;;;;21.34;56.53;101274.53;5013144;28;20120;-62
2023/06/16 12:20:23;;;;;;;6.63;4.80;;;;;;;20.18;57.42;101267.63;5013101;28;20085;-63
2023/06/16 12:22:54;;;;;;;9.80;4.82;;;;;;;19.33;60.71;101280.38;5016923;28;20100;-63
2023/06/16 12:25:22;;;;;;;5.75;4.47;;;;;;;20.07;59.80;101277.50;5012414;28;20454;-64
2023/06/16 12:27:51;;;;;;;7.35;4.70;;;;;;;20.15;62.75;101269.72;5012484;28;20077;-62
2023/06/16 12:30:18;;;;;;;7.47;5.22;;;;;;;20.31;61.79;101272.91;5016104;28;20057;-62
2023/06/16 12:32:46;;;;;;;11.07;5.30;;;;;;;20.08;60.71;101266.66;5029852;28;20219;-64
2023/06/16 12:35:23;;;;;;;15.88;5.53;;;;;;;20.62;58.64;101270.47;5031881;28;20056;-64
2023/06/16 12:37:50;;;;;;;18.42;5.75;;;;;;;20.49;59.01;101262.53;5032521;28;20057;-64
2023/06/16 12:40:27;;;;;;;7.50;5.18;;;;;;;19.89;60.22;101275.25;5016535;28;20065;-64
2023/06/16 12:42:54;;;;;;;8.70;4.95;;;;;;;19.29;60.74;101273.53;5012774;28;20050;-64
2023/06/16 12:45:20;;;;;;;8.65;5.25;;;;;;;19.48;61.32;101271.19;5027540;28;20046;-64
2023/06/16 12:47:47;;;;;;;9.52;5.40;;;;;;;19.80;60.27;101273.31;5012671;28;20129;-64
2023/06/16 12:50:14;;;;;;;6.30;4.70;;;;;;;20.84;58.13;101268.75;5020871;28;20049;-63
2023/06/16 12:52:40;;;;;;;7.22;5.10;;;;;;;20.87;57.87;101261.31;5031247;28;20072;-63
2023/06/16 12:55:07;;;;;;;6.57;5.30;;;;;;;21.88;53.16;101270.03;5031868;28;20136;-63
2023/06/16 12:57:34;;;;;;;7.00;4.95;;;;;;;22.64;51.63;101261.69;5029690;28;20373;-64
2023/06/16 13:00:00;;;;;;;7.38;4.90;;;;;;;22.60;52.17;101256.69;5030854;28;20053;-67
2023/06/16 13:02:27;;;;;;;9.40;5.95;;;;;;;20.97;55.08;101258.72;5031945;28;20350;-64
2023/06/16 13:04:53;;;;;;;9.75;4.97;;;;;;;19.70;60.20;101250.78;5030765;28;20075;-67
2023/06/16 13:07:20;;;;;;;7.53;5.32;;;;;;;19.95;60.32;101245.28;5014348;28;20048;-66
2023/06/16 13:09:47;;;;;;;7.50;5.90;;;;;;;21.00;57.41;101242.34;5031415;28;20081;-65
2023/06/16 13:12:14;;;;;;;13.48;5.93;;;;;;;21.17;55.72;101242.78;5044700;28;20083;-64
2023/06/16 13:14:41;;;;;;;12.00;5.53;;;;;;;21.70;54.17;101233.94;5049164;28;20053;-65
2023/06/16 13:17:07;;;;;;;6.18;5.03;;;;;;;21.42;55.20;101241.63;5045840;28;20057;-65
2023/06/16 13:19:34;;;;;;;5.50;4.35;;;;;;;20.49;56.81;101238.38;5044314;28;20049;-66
2023/06/16 13:22:01;;;;;;;8.75;4.75;;;;;;;21.08;54.67;101234.50;5054044;28;20111;-66
2023/06/16 13:24:29;;;;;;;5.70;4.10;;;;;;;21.77;53.59;101240.50;5038826;28;20051;-64
2023/06/16 13:26:56;;;;;;;8.00;4.78;;;;;;;20.00;58.14;101234.19;5035108;28;20087;-67
2023/06/16 13:29:22;;;;;;;16.05;5.20;;;;;;;20.72;56.15;101233.88;5042004;28;20053;-64
2023/06/16 13:31:49;;;;;;;6.10;4.78;;;;;;;19.89;58.35;101244.91;5043516;28;20041;-67
2023/06/16 13:34:15;;;;;;;13.90;4.55;;;;;;;20.41;56.16;101240.81;5031944;28;20381;-67
2023/06/16 13:36:42;;;;;;;10.15;4.68;;;;;;;20.62;55.99;101238.25;5051445;28;20045;-65
2023/06/16 13:39:09;;;;;;;6.00;4.07;;;;;;;19.98;57.25;101226.28;5047860;28;20357;-68
2023/06/16 13:41:36;;;;;;;8.20;4.43;;;;;;;19.88;58.34;101232.47;5031391;28;20071;-66
2023/06/16 13:44:03;;;;;;;7.30;3.92;;;;;;;20.36;56.64;101227.75;5031113;28;20041;-64
2023/06/16 13:46:29;;;;;;;7.13;4.18;;;;;;;20.77;54.64;101224.59;5031317;28;20049;-66
2023/06/16 13:48:56;;;;;;;8.63;4.63;;;;;;;20.86;54.84;101223.84;5031530;28;20103;-68
2023/06/16 13:51:23;;;;;;;8.10;4.03;;;;;;;21.43;53.43;101216.41;5031661;28;20145;-70
2023/06/16 13:53:50;;;;;;;6.63;4.63;;;;;;;21.75;52.73;101205.66;5029465;28;20049;-67
2023/06/16 13:56:16;;;;;;;5.03;4.10;;;;;;;22.02;50.99;101219.53;5051866;28;20057;-67
2023/06/16 13:58:43;;;;;;;6.03;4.22;;;;;;;21.69;51.53;101200.78;5053359;28;20095;-67
2023/06/16 14:01:09;;;;;;;5.88;4.47;;;;;;;20.97;53.18;101202.31;5052968;28;20057;-68
2023/06/16 14:03:36;;;;;;;5.88;4.40;;;;;;;20.97;53.85;101194.25;5035345;28;20051;-69
2023/06/16 14:06:02;;;;;;;6.68;4.82;;;;;;;21.00;52.95;101188.63;5044089;28;20049;-68
2023/06/16 14:08:29;;;;;;;6.13;3.75;;;;;;;20.62;54.77;101197.97;5054672;28;20307;-69
2023/06/16 14:10:56;;;;;;;6.63;4.00;;;;;;;22.13;50.80;101181.78;5047250;28;20053;-68
2023/06/16 14:13:23;;;;;;;8.63;5.15;;;;;;;22.26;49.55;101192.31;5050430;28;20128;-67
2023/06/16 14:15:50;;;;;;;11.27;4.40;;;;;;;20.37;54.23;101174.94;5058037;28;20129;-69
2023/06/16 14:18:18;;;;;;;10.88;4.43;;;;;;;20.88;53.66;101181.59;5068139;28;20052;-69
2023/06/16 14:20:45;;;;;;;5.18;3.97;;;;;;;23.53;47.91;101163.72;5035132;28;20045;-69
2023/06/16 14:23:15;;;;;;;5.00;4.30;;;;;;;23.27;47.38;101171.56;5044420;28;20139;-67
2023/06/16 14:25:44;;;;;;;7.68;4.15;;;;;;;23.50;46.49;101160.47;5053388;28;20048;-68
2023/06/16 14:28:14;;;;;;;9.60;4.30;;;;;;;25.44;42.27;101158.59;5053561;28;20053;-69
2023/06/16 14:30:41;;;;;;;8.30;4.43;;;;;;;26.83;39.36;101164.91;5052814;28;20298;-67
2023/06/16 14:33:08;;;;;;;7.45;3.70;;;;;;;23.68;45.37;101168.69;5054234;28;20041;-68
2023/06/16 14:35:37;;;;;;;8.90;4.60;;;;;;;23.69;45.78;101154.19;5053868;28;20052;-68
2023/06/16 14:38:04;;;;;;;7.38;4.18;;;;;;;23.34;46.34;101155.66;5053142;28;20095;-67
2023/06/16 14:40:30;;;;;;;8.82;4.57;;;;;;;22.11;48.59;101157.69;5054105;28;20438;-68
2023/06/16 14:42:57;;;;;;;7.90;4.20;;;;;;;24.64;43.65;101150.41;5054156;28;20091;-67
2023/06/16 14:45:24;;;;;;;9.18;4.63;;;;;;;23.88;44.12;101146.06;5052644;28;20103;-68
2023/06/16 14:47:51;;;;;;;7.13;4.00;;;;;;;21.93;48.25;101162.00;5053938;28;20100;-69
2023/06/16 14:50:18;;;;;;;6.13;4.22;;;;;;;21.42;50.00;101151.03;5054111;28;20140;-69
2023/06/16 14:52:45;;;;;;;8.85;4.88;;;;;;;21.93;49.55;101148.53;5053196;28;20107;-69
2023/06/16 14:55:11;;;;;;;7.22;4.47;;;;;;;21.99;49.86;101156.09;5045024;28;20053;-67
2023/06/16 14:57:38;;;;;;;6.57;4.93;;;;;;;21.53;50.29;101154.69;5033085;28;20678;-70
2023/06/16 15:00:05;;;;;;;8.05;4.75;;;;;;;21.53;49.89;101146.59;5033940;28;20140;-69
2023/06/16 15:02:32;;;;;;;8.73;4.65;;;;;;;22.72;47.15;101145.13;5033111;28;20046;-69
2023/06/16 15:04:59;;;;;;;7.00;4.70;;;;;;;23.46;45.59;101141.03;5036241;28;20053;-69
2023/06/16 15:07:26;;;;;;;7.60;4.93;;;;;;;23.64;45.64;101152.78;5034078;28;20782;-68
2023/06/16 15:09:52;;;;;;;7.82;4.32;;;;;;;23.02;47.05;101162.19;5033802;28;20045;-66
2023/06/16 15:12:19;;;;;;;5.57;4.10;;;;;;;21.38;50.57;101149.63;5032892;28;20429;-67
2023/06/16 15:14:46;;;;;;;6.18;4.30;;;;;;;22.19;49.36;101155.16;5053067;28;20052;-65
2023/06/16 15:17:12;;;;;;;6.38;4.43;;;;;;;22.46;48.15;101140.28;5053748;28;20080;-64
2023/06/16 15:19:40;;;;;;;7.22;4.35;;;;;;;20.90;51.51;101144.69;5048957;28;20053;-66
2023/06/16 15:22:08;;;;;;;7.25;4.45;;;;;;;21.92;49.98;101146.81;5033009;28;20488;-65
2023/06/16 15:24:35;;;;;;;5.47;4.68;;;;;;;24.32;43.75;101124.66;5033186;28;20056;-65
2023/06/16 15:27:02;;;;;;;6.22;4.43;;;;;;;23.54;45.01;101129.50;5033637;28;20099;-65
2023/06/16 15:29:29;;;;;;;10.40;4.13;;;;;;;23.43;44.82;101127.84;5046575;28;20059;-67
2023/06/16 15:31:56;;;;;;;11.38;4.85;;;;;;;22.55;47.56;101128.66;5047780;28;20141;-69
2023/06/16 15:34:23;;;;;;;7.68;4.78;;;;;;;22.97;46.60;101121.31;5048225;28;20049;-70
2023/06/16 15:36:49;;;;;;;6.50;4.50;;;;;;;24.27;43.84;101116.19;5033640;28;20144;-69
2023/06/16 15:39:17;;;;;;;8.70;4.93;;;;;;;24.26;42.91;101109.09;5040582;28;20364;-67
2023/06/16 15:41:44;;;;;;;6.95;4.70;;;;;;;23.41;44.65;101108.25;5048657;28;20063;-67
2023/06/16 15:44:11;;;;;;;9.45;4.50;;;;;;;24.60;43.10;101105.75;5033141;28;20136;-65
2023/06/16 15:46:37;;;;;;;5.57;4.63;;;;;;;22.80;46.10;101096.75;5032775;28;20111;-67
2023/06/16 15:49:04;;;;;;;6.68;4.68;;;;;;;23.58;43.95;101085.91;5037636;28;20068;-65
2023/06/16 15:51:31;;;;;;;6.95;4.78;;;;;;;24.47;42.23;101092.63;5051949;28;20107;-66
2023/06/16 15:53:57;;;;;;;6.03;4.30;;;;;;;23.59;44.64;101089.47;5052411;28;20136;-69
2023/06/16 15:56:24;;;;;;;7.30;4.85;;;;;;;24.19;43.38;101086.38;5050674;28;20053;-66
2023/06/16 15:58:51;;;;;;;6.13;4.65;;;;;;;24.26;43.25;101087.50;5050567;28;20048;-66
2023/06/16 16:01:18;;;;;;;8.48;4.85;;;;;;;24.93;41.70;101084.47;5051418;28;20260;-66
2023/06/16 16:03:44;;;;;;;5.97;4.57;;;;;;;24.34;42.73;101092.97;5051666;28;20053;-66
2023/06/16 16:06:11;;;;;;;5.78;4.20;;;;;;;23.87;43.80;101081.44;5040914;28;20072;-66
2023/06/16 16:08:38;;;;;;;7.25;5.03;;;;;;;23.18;45.66;101070.84;5049716;28;20148;-66
2023/06/16 16:11:04;;;;;;;9.85;5.78;;;;;;;24.62;42.72;101071.34;5051525;28;20433;-66
2023/06/16 16:13:31;;;;;;;8.15;4.47;;;;;;;25.24;41.21;101070.47;5052579;28;20059;-66
2023/06/16 16:15:57;;;;;;;6.55;4.05;;;;;;;24.53;42.00;101072.22;5049994;28;20049;-66
2023/06/16 16:18:24;;;;;;;10.10;4.75;;;;;;;22.27;47.03;101080.94;5047950;28;20365;-66
2023/06/16 16:20:53;;;;;;;8.00;5.22;;;;;;;22.91;45.66;101069.69;5032082;28;20119;-66
2023/06/16 16:23:20;;;;;;;6.18;4.63;;;;;;;23.86;43.88;101072.47;5032604;28;20084;-66
2023/06/16 16:25:47;;;;;;;11.75;4.95;;;;;;;23.11;44.65;101075.09;5041125;28;20049;-66
2023/06/16 16:28:13;;;;;;;16.90;5.45;;;;;;;22.30;47.34;101065.41;5052470;28;20148;-66
2023/06/16 16:30:40;;;;;;;7.47;5.00;;;;;;;22.97;45.61;101062.00;5052446;28;20076;-68
2023/06/16 16:33:07;;;;;;;6.50;4.63;;;;;;;22.76;44.90;101065.72;5052295;28;20045;-67
2023/06/16 16:35:34;;;;;;;8.25;4.40;;;;;;;22.03;46.38;101060.63;5050850;28;20139;-67
2023/06/16 16:38:00;;;;;;;7.72;4.55;;;;;;;22.88;45.04;101053.78;5052385;28;20622;-67
2023/06/16 16:40:27;;;;;;;6.97;5.03;;;;;;;22.76;45.34;101063.03;5052640;28;20357;-68
2023/06/16 16:42:55;;;;;;;5.68;4.32;;;;;;;23.38;43.80;101065.41;5050164;28;20045;-66
2023/06/16 16:45:22;;;;;;;13.93;4.82;;;;;;;22.95;44.38;101064.00;5051912;28;20080;-66
2023/06/16 16:47:48;;;;;;;6.78;4.65;;;;;;;22.34;44.68;101060.56;5052378;28;20103;-68
2023/06/16 16:50:15;;;;;;;5.43;4.05;;;;;;;23.06;44.52;101058.47;5050937;28;20104;-66
2023/06/16 16:52:42;;;;;;;11.73;4.55;;;;;;;22.97;44.09;101060.19;5050452;28;20140;-67
2023/06/16 16:55:08;;;;;;;8.35;4.63;;;;;;;23.37;44.58;101051.03;5051797;28;20049;-66
2023/06/16 16:57:48;;;;;;;5.55;4.47;;;;;;;22.22;46.14;101046.38;5050962;28;20097;-66
2023/06/16 17:00:15;;;;;;;6.78;4.00;;;;;;;22.64;44.98;101059.63;5050916;28;20059;-67
2023/06/16 17:02:42;;;;;;;9.98;4.35;;;;;;;22.74;44.21;101056.94;5034859;28;20060;-66
2023/06/16 17:05:09;;;;;;;8.23;4.85;;;;;;;22.71;44.89;101057.22;5049200;28;20053;-69
2023/06/16 17:07:35;;;;;;;10.25;3.97;;;;;;;22.14;46.59;101060.50;5052327;28;20053;-66
2023/06/16 17:10:02;;;;;;;5.88;4.35;;;;;;;22.50;46.05;101060.88;5048778;28;20131;-66
2023/06/16 17:12:28;;;;;;;8.40;4.65;;;;;;;22.51;45.61;101051.81;5031720;28;20107;-66
2023/06/16 17:14:55;;;;;;;4.65;3.63;;;;;;;22.27;46.10;101064.78;5030380;28;20555;-66
2023/06/16 17:17:21;;;;;;;6.95;4.07;;;;;;;21.36;48.73;101049.41;5032084;28;20063;-68
2023/06/16 17:19:48;;;;;;;7.20;5.25;;;;;;;20.78;50.22;101055.25;5034043;28;20442;-68
2023/06/16 17:22:14;;;;;;;6.68;5.32;;;;;;;21.37;49.14;101058.34;5031966;28;20153;-68
2023/06/16 17:24:41;;;;;;;7.00;4.55;;;;;;;20.84;50.31;101059.22;5031650;28;20084;-68
2023/06/16 17:27:08;;;;;;;8.60;5.30;;;;;;;20.87;50.30;101061.66;5031630;28;20541;-67
2023/06/16 17:29:34;;;;;;;10.68;4.93;;;;;;;20.69;50.99;101059.53;5045493;28;20397;-67
2023/06/16 17:32:01;;;;;;;7.60;5.50;;;;;;;20.96;50.54;101063.59;5051753;28;20049;-68
2023/06/16 17:34:27;;;;;;;7.07;5.07;;;;;;;20.32;51.84;101059.03;5054295;28;20107;-69
2023/06/16 17:36:57;;;;;;;10.10;5.55;;;;;;;20.30;52.25;101061.84;5054766;28;20103;-66
2023/06/16 17:39:24;;;;;;;6.50;5.35;;;;;;;19.99;53.36;101064.34;5036168;28;20461;-68
2023/06/16 17:41:50;;;;;;;10.07;5.30;;;;;;;19.65;54.71;101070.63;5036042;28;20054;-69
2023/06/16 17:44:22;;;;;;;10.52;6.00;;;;;;;19.63;54.56;101074.31;5051568;28;20134;-68
2023/06/16 17:46:48;;;;;;;9.25;5.75;;;;;;;19.46;55.28;101072.09;5047378;28;20080;-69
2023/06/16 17:49:18;;;;;;;5.50;4.20;;;;;;;19.19;56.25;101093.84;5059017;28;20147;-67
2023/06/16 17:51:46;;;;;;;11.85;3.47;;;;;;;18.53;58.39;101121.03;5054584;28;20049;-67
2023/06/16 17:54:12;;;;;;;7.47;2.30;;;;;;;17.37;67.04;101131.81;5035427;28;20060;-62
2023/06/16 17:56:39;;;;;;;13.82;4.25;;;;;;;15.00;87.83;101130.69;5045858;28;20140;-60
2023/06/16 17:59:06;;;;;;;30.75;6.80;;;;;;;-145.07;100.00;61000.34;5059304;28;20084;-61
2023/06/16 18:02:31;;;;;;;12.45;5.18;;;;;;;-145.07;100.00;61000.34;5058031;28;20053;-59
2023/06/16 18:05:56;;;;;;;14.32;4.63;;;;;;;-145.07;100.00;61000.34;5055256;28;20083;-59
2023/06/16 18:09:21;;;;;;;19.15;5.15;;;;;;;-145.07;100.00;61000.34;5076548;28;20048;-59
2023/06/16 18:12:46;;;;;;;7.30;4.63;;;;;;;-145.07;100.00;61000.34;5048660;28;20093;-60
2023/06/16 18:16:11;;;;;;;6.93;4.90;;;;;;;-145.07;100.00;61000.34;5063942;28;20099;-59
2023/06/16 18:19:31;;;;;;;10.63;4.63;;;;;;;-145.07;nan;61000.34;5037753;28;20393;-59
2023/06/16 18:21:58;;;;;;;12.73;4.75;;;;;;;28.51;nan;101148.84;5035744;28;20053;-57
2023/06/16 18:24:26;;;;;;;23.23;6.80;;;;;;;29.03;nan;101142.78;5060531;28;20060;-57
2023/06/16 18:26:53;;;;;;;10.45;4.80;;;;;;;29.11;nan;101133.69;5055686;28;20052;-59
2023/06/16 18:29:23;;;;;;;6.55;4.47;;;;;;;29.80;nan;101133.59;5071358;28;20059;-59
2023/06/16 18:31:50;;;;;;;13.45;7.15;;;;;;;29.39;nan;101120.38;5076060;28;20056;-59
2023/06/16 18:34:17;;;;;;;8.13;4.63;;;;;;;29.30;nan;101132.34;5069285;28;20056;-59
2023/06/16 18:36:46;;;;;;;6.85;4.35;;;;;;;28.62;nan;101134.03;5056106;28;20060;-58
2023/06/16 18:39:13;;;;;;;14.05;5.30;;;;;;;29.45;nan;101135.94;5035763;28;20068;-60
2023/06/16 18:41:40;;;;;;;13.77;5.97;;;;;;;29.70;nan;101118.50;5055039;28;20098;-59
2023/06/16 18:44:07;;;;;;;10.85;5.70;;;;;;;29.58;nan;101113.53;5059271;28;20053;-59
2023/06/16 18:46:33;;;;;;;9.10;5.32;;;;;;;29.04;nan;101106.34;5057788;28;20056;-59
2023/06/16 18:49:00;;;;;;;10.75;5.18;;;;;;;29.36;nan;101109.84;5075572;28;20052;-59
2023/06/16 18:51:27;;;;;;;7.78;4.80;;;;;;;29.69;nan;101104.06;5061756;28;20049;-58
2023/06/16 18:53:54;;;;;;;9.05;5.25;;;;;;;29.41;nan;101099.25;5075541;28;20045;-59
2023/06/16 18:56:20;;;;;;;10.15;5.15;;;;;;;28.76;nan;101102.53;5063869;28;20114;-58
2023/06/16 18:58:47;;;;;;;10.68;5.30;;;;;;;29.50;nan;101107.34;5043866;28;20053;-59
2023/06/16 19:01:14;;;;;;;12.27;6.35;;;;;;;29.51;nan;101109.00;5037147;28;20125;-58
2023/06/16 19:03:41;;;;;;;12.38;5.18;;;;;;;29.82;nan;101115.16;5055834;28;20493;-58
2023/06/16 19:06:07;;;;;;;12.80;6.10;;;;;;;29.03;nan;101121.00;5058044;28;20060;-59
2023/06/16 19:08:34;;;;;;;13.57;6.53;;;;;;;29.38;nan;101126.00;5060151;28;20040;-58
2023/06/16 19:11:02;;;;;;;11.27;6.38;;;;;;;29.96;nan;101115.34;5060300;28;20057;-58
2023/06/16 19:13:28;;;;;;;8.00;5.05;;;;;;;29.74;nan;101115.22;5052358;28;20042;-58
2023/06/16 19:15:55;;;;;;;13.95;6.55;;;;;;;30.17;nan;101122.75;5034705;28;20053;-58
2023/06/16 19:18:21;;;;;;;7.82;5.68;;;;;;;30.13;nan;101111.38;5060793;28;20087;-58
2023/06/16 19:20:48;;;;;;;13.55;6.20;;;;;;;30.65;nan;101103.19;5049596;28;20365;-58
2023/06/16 19:23:16;;;;;;;11.75;5.22;;;;;;;29.97;nan;101100.69;5043962;28;20063;-59
2023/06/16 19:25:43;;;;;;;9.88;5.57;;;;;;;30.55;nan;101109.81;5052242;28;20368;-59
2023/06/16 19:28:15;;;;;;;8.15;4.72;;;;;;;30.05;nan;101102.44;5044729;28;20350;-59
2023/06/16 19:30:41;;;;;;;9.15;4.93;;;;;;;29.64;nan;101101.06;5059695;28;20051;-59
2023/06/16 19:33:08;;;;;;;12.35;4.97;;;;;;;29.06;nan;101103.44;5071363;28;20056;-59
2023/06/16 19:35:35;;;;;;;7.97;5.47;;;;;;;29.24;nan;101114.03;5065766;28;20052;-59
2023/06/16 19:38:03;;;;;;;12.18;6.47;;;;;;;28.34;nan;101110.03;5057152;28;20121;-59
2023/06/16 19:40:29;;;;;;;9.60;5.80;;;;;;;28.38;nan;101112.22;5049708;28;20060;-58
2023/06/16 19:42:56;;;;;;;13.02;6.95;;;;;;;29.63;nan;101111.09;5036146;28;20442;-59
2023/06/16 19:45:23;;;;;;;11.10;5.93;;;;;;;29.30;nan;101121.47;5048292;28;20053;-60
2023/06/16 19:47:50;;;;;;;12.85;6.57;;;;;;;29.28;nan;101115.38;5034987;28;20080;-59
2023/06/16 19:50:17;;;;;;;15.00;6.13;;;;;;;29.25;nan;101118.47;5059583;28;20048;-59
2023/06/16 19:52:44;;;;;;;14.32;7.18;;;;;;;28.31;nan;101121.25;5051122;28;20078;-59
2023/06/16 19:55:10;;;;;;;15.45;6.38;;;;;;;27.95;nan;101128.03;5061373;28;20052;-59
2023/06/16 19:57:37;;;;;;;11.52;6.60;;;;;;;29.53;nan;101136.91;5056789;28;20064;-59
2023/06/16 20:00:04;;;;;;;16.05;7.80;;;;;;;30.80;nan;101134.00;5045377;28;20379;-59
2023/06/16 20:02:32;;;;;;;12.02;6.25;;;;;;;30.04;nan;101145.22;5051729;28;20045;-59
2023/06/16 20:04:59;;;;;;;10.15;5.43;;;;;;;28.95;nan;101140.13;5062816;28;20131;-59
2023/06/16 20:07:27;;;;;;;8.57;4.32;;;;;;;28.46;nan;101140.38;5058303;28;20110;-59
2023/06/16 20:09:54;;;;;;;8.63;5.00;;;;;;;29.99;nan;101136.75;5073645;28;20059;-59
2023/06/16 20:12:21;;;;;;;7.97;4.55;;;;;;;28.46;nan;101129.50;5060254;28;20057;-59
2023/06/16 20:14:47;;;;;;;8.43;5.47;;;;;;;30.08;nan;101129.31;5065666;28;20040;-59
2023/06/16 20:17:14;;;;;;;8.45;5.53;;;;;;;30.47;nan;101131.75;5063290;28;20132;-59
2023/06/16 20:19:41;;;;;;;7.47;5.55;;;;;;;30.54;nan;101126.38;5060169;28;20055;-59
2023/06/16 20:22:07;;;;;;;14.52;6.40;;;;;;;30.88;nan;101133.84;5061116;28;20076;-59
2023/06/16 20:24:34;;;;;;;12.32;5.75;;;;;;;30.52;nan;101136.59;5059209;28;20053;-59
2023/06/16 20:27:01;;;;;;;11.20;5.20;;;;;;;29.43;nan;101137.19;5040944;28;20053;-59
2023/06/16 20:29:28;;;;;;;7.72;5.38;;;;;;;29.68;nan;101143.22;5058659;28;20433;-59
2023/06/16 20:31:55;;;;;;;7.05;4.75;;;;;;;29.35;nan;101140.81;5052614;28;20053;-59
2023/06/16 20:34:22;;;;;;;10.25;6.15;;;;;;;30.58;nan;101135.00;5056728;28;20465;-61
2023/06/16 20:36:48;;;;;;;9.52;6.05;;;;;;;30.54;nan;101140.84;5065003;28;20048;-59
2023/06/16 20:39:16;;;;;;;9.00;5.97;;;;;;;30.29;nan;101136.72;5059016;28;20049;-59
2023/06/16 20:41:43;;;;;;;9.70;5.93;;;;;;;30.84;nan;101137.16;5037201;28;20052;-59
2023/06/16 20:44:09;;;;;;;7.88;5.60;;;;;;;30.45;nan;101136.53;5051942;28;20040;-59
2023/06/16 20:46:37;;;;;;;10.02;6.30;;;;;;;30.89;nan;101132.81;5056138;28;20060;-59